Wednesday, February 21, 2018, 8:17 PM EST
Back to Local

K1V4, St Johnsbury Fairbanks

Location: Saint Johnsbury, VT, United States Lat: 44.417
Local Time: 8:17 PM EST ( 1:17 GMT) Lon: -72.017
Time Zone: US/Eastern Elev: 695 ft

Show me the last for .
Show Coded

Time T Td Feel RH Dir Speed Gust Alt SLP Vis Weather Sky Remarks
2018-02-21 18:54 45 33 - 62 - - - 30.31 30.33 0 6-hr Min Temp (7pm): 45.0°F
6-hr Max Temp (7pm): 64.9°F
2018-02-21 17:54 48 39 - 70 - - - 30.27 30.29 0 None
2018-02-21 16:54 49 42 - 77 - - - 30.23 30.24 0 Pressure rising rapidly
2018-02-21 15:54 51 47 - 85 - - - 30.16 30.17 0 None
2018-02-21 14:54 57 52 - 83 - - - 30.06 30.07 0 None
2018-02-21 13:54 63 51 - 65 - - - 29.97 29.97 0 None
2018-02-21 12:54 62 51 - 67 - - - 29.99 29.99 0 6-hr Min Temp (1pm): 36.0°F
6-hr Max Temp (1pm): 62.1°F
2018-02-21 11:54 61 51 - 69 - - - 30.00 30.01 0 None
2018-02-21 10:54 56 49 - 77 - - - 30.03 30.04 0 None
2018-02-21 09:54 55 49 - 79 - - - 30.06 30.06 0 None
2018-02-21 08:54 47 45 - 92 - - - 30.09 30.10 0 None
2018-02-21 07:54 38 38 - 100 - - - 30.09 30.11 0 None
2018-02-21 06:54 36 36 - 100 - - - 30.09 30.11 0 24-hr Precip Total (7am): 0.07"
6-hr Min Temp (7am): 36.0°F
6-hr Max Temp (7am): 39.0°F
2018-02-21 05:54 38 38 - 100 - - - 30.09 30.11 0 None
2018-02-21 04:54 37 37 - 100 - - - 30.11 30.13 0 None
2018-02-21 03:54 37 37 - 100 - - - 30.13 30.14 0 None
2018-02-21 02:54 37 37 - 100 - - - 30.14 30.16 0 None
2018-02-21 01:54 39 39 - 100 - - - 30.15 30.17 0 None
2018-02-21 00:54 38 38 - 100 - - - 30.16 30.18 0 6-hr Min Temp (1am): 37.9°F
6-hr Max Temp (1am): 39.9°F
2018-02-20 23:54 38 38 - 100 - - - 30.17 30.19 0 24-hr Min Temp (12am): 35.1°F
24-hr Max Temp (12am): 44.1°F
2018-02-20 22:54 38 38 - 100 - - - 30.17 30.19 0 None
2018-02-20 21:54 39 39 - 100 - - - 30.17 30.19 0 None
2018-02-20 20:54 39 39 - 100 - - - 30.17 30.19 0 None

Support USWX by starting your Amazon purchase here.